LCRA/AKT METAR and TAF weather

Enter ICAO airport designator
Station Type Date Time Source
LCRA METAR 2019/06/17 04:50 UTC NOAA

LCRA 170450Z 04002KT 9999 FEW016 26/21 Q1008 NOSIG RMK BLU BLU


Station Type Date Time Source
LCRA Decoded METAR 2019/06/17 04:50 UTC NOAA

Akrotiri, Cyprus (LCRA) 34-35N 032-59E 0M
Jun 17, 2019 - 12:50 AM EDT / 2019.06.17 0450 UTC
Wind: from the NE (040 degrees) at 2 MPH (2 KT):0
Visibility: greater than 7 mile(s):0
Sky conditions: mostly clear
Temperature: 78 F (26 C)
Dew Point: 69 F (21 C)
Relative Humidity: 73%
Pressure (altimeter): 29.77 in. Hg (1008 hPa)
ob: LCRA 170450Z 04002KT 9999 FEW016 26/21 Q1008 NOSIG RMK BLU BLU
cycle: 5

Station Type Date Time Source
LCRA TAF 2019/06/17 06:03 UTC NOAA

TAF TAF LCRA 170400Z 1706/1724 VRB03KT 9999 FEW012
BECMG 1706/1709 22010KT PROB30
TEMPO 1711/1717 25015G25KT

Example: see airport list